createdAt,value
2019-04-26T00:02:10.680Z,22.15
2019-04-26T00:04:41.033Z,24.23
2019-04-26T00:07:10.489Z,21.97
2019-04-26T00:09:40.669Z,23.20
2019-04-26T00:12:26.355Z,22.42
2019-04-26T00:14:57.021Z,23.50
2019-04-26T00:17:27.751Z,26.95
2019-04-26T00:19:56.867Z,24.25
2019-04-26T00:22:25.650Z,24.30
2019-04-26T00:24:54.424Z,20.43
2019-04-26T00:27:23.198Z,28.87
2019-04-26T00:29:52.015Z,21.73
2019-04-26T00:32:21.389Z,25.90
2019-04-26T00:34:50.395Z,21.82
2019-04-26T00:37:20.103Z,25.52
2019-04-26T00:39:48.986Z,22.65
2019-04-26T00:42:18.568Z,25.45
2019-04-26T00:44:47.896Z,25.62
2019-04-26T00:47:18.998Z,23.22
2019-04-26T00:49:48.247Z,24.25
2019-04-26T00:52:17.776Z,24.27
2019-04-26T00:54:47.150Z,27.65
2019-04-26T00:57:18.229Z,26.12
2019-04-26T00:59:50.563Z,23.27
2019-04-26T01:02:21.105Z,27.98
2019-04-26T01:04:49.920Z,20.23
2019-04-26T01:07:19.081Z,22.27
2019-04-26T01:09:48.120Z,24.07
2019-04-26T01:12:17.741Z,21.68
2019-04-26T01:14:46.791Z,21.70
2019-04-26T01:17:15.984Z,24.27
2019-04-26T01:19:46.625Z,23.52
2019-04-26T01:22:21.502Z,28.73
2019-04-26T01:24:52.440Z,23.77
2019-04-26T01:27:25.435Z,21.85
2019-04-26T01:29:57.501Z,14.97
2019-04-26T01:32:28.338Z,27.67
2019-04-26T01:34:57.627Z,28.47
2019-04-26T01:37:27.016Z,30.85
2019-04-26T01:40:00.368Z,33.15
2019-04-26T01:42:33.726Z,23.80
2019-04-26T01:45:06.332Z,23.92
2019-04-26T01:47:35.776Z,25.05
2019-04-26T01:50:06.206Z,22.40
2019-04-26T01:52:34.964Z,28.67
2019-04-26T01:55:06.134Z,26.30
2019-04-26T01:57:35.033Z,22.13
2019-04-26T02:00:12.796Z,16.27
2019-04-26T02:02:43.206Z,18.60
2019-04-26T02:05:23.717Z,27.80
2019-04-26T02:07:53.131Z,25.27
2019-04-26T02:10:25.124Z,19.90
2019-04-26T02:12:55.162Z,24.35
2019-04-26T02:15:27.163Z,31.02
2019-04-26T02:17:57.769Z,22.95
2019-04-26T02:20:52.649Z,25.17
2019-04-26T02:23:23.631Z,21.95
2019-04-26T02:25:54.192Z,19.32
2019-04-26T02:28:23.975Z,21.80
2019-04-26T02:30:53.948Z,25.62
2019-04-26T02:33:23.145Z,24.43
2019-04-26T02:35:51.976Z,22.62
2019-04-26T02:38:20.883Z,21.97
2019-04-26T02:40:51.179Z,22.45
2019-04-26T02:43:22.883Z,17.80
2019-04-26T02:45:59.831Z,21.07
2019-04-26T02:48:34.775Z,25.80
2019-04-26T02:51:06.714Z,21.65
2019-04-26T02:53:56.774Z,30.32
2019-04-26T02:56:40.031Z,21.85
2019-04-26T02:59:14.308Z,24.47
2019-04-26T03:01:43.495Z,18.42
2019-04-26T03:04:12.294Z,24.10
2019-04-26T03:06:43.107Z,24.20
2019-04-26T03:09:14.010Z,20.95
2019-04-26T03:11:48.710Z,22.98
2019-04-26T03:14:23.359Z,22.73
2019-04-26T03:16:56.907Z,23.47
2019-04-26T03:19:47.087Z,24.80
2019-04-26T03:22:24.956Z,20.77
2019-04-26T03:24:56.671Z,25.25
2019-04-26T03:27:35.727Z,22.13
2019-04-26T03:30:23.779Z,26.40
2019-04-26T03:33:12.813Z,22.98
2019-04-26T03:36:01.202Z,32.65
2019-04-26T03:38:38.275Z,25.90
2019-04-26T03:41:21.258Z,26.62
2019-04-26T03:43:59.154Z,27.85
2019-04-26T03:46:38.778Z,29.67
2019-04-26T03:49:39.250Z,19.75
2019-04-26T03:52:40.218Z,30.68
2019-04-26T03:55:32.270Z,22.20
2019-04-26T03:58:08.876Z,31.33
2019-04-26T04:00:54.411Z,22.37
2019-04-26T04:03:30.721Z,24.85
2019-04-26T04:06:19.428Z,26.57
2019-04-26T04:08:54.158Z,23.32
2019-04-26T04:11:28.808Z,26.65
2019-04-26T04:14:06.370Z,33.85
2019-04-26T04:16:49.050Z,19.70
2019-04-26T04:19:39.070Z,35.63
2019-04-26T04:22:17.124Z,30.32
2019-04-26T04:24:54.699Z,24.63
2019-04-26T04:27:40.149Z,28.55
2019-04-26T04:30:32.820Z,30.27
2019-04-26T04:33:16.530Z,37.03
2019-04-26T04:35:54.277Z,30.48
2019-04-26T04:38:49.915Z,32.93
2019-04-26T04:41:45.147Z,29.12
2019-04-26T04:45:06.892Z,38.33
2019-04-26T04:47:58.239Z,33.42
2019-04-26T04:50:34.481Z,38.25
2019-04-26T04:53:09.044Z,31.25
2019-04-26T04:55:42.791Z,32.88
2019-04-26T04:58:22.858Z,36.75
2019-04-26T05:01:26.826Z,37.28
2019-04-26T05:04:21.323Z,32.00
2019-04-26T05:07:03.230Z,34.30
2019-04-26T05:09:53.690Z,35.50
2019-04-26T05:12:25.420Z,35.43
2019-04-26T05:15:14.074Z,34.53
2019-04-26T05:18:02.664Z,38.38
2019-04-26T05:20:34.464Z,37.40
2019-04-26T05:23:18.425Z,40.28
2019-04-26T05:26:38.735Z,36.93
2019-04-26T05:29:12.161Z,40.67
2019-04-26T05:32:11.149Z,46.55
2019-04-26T05:35:05.585Z,44.73
2019-04-26T05:37:43.024Z,36.98
2019-04-26T05:40:17.614Z,36.38
2019-04-26T05:43:42.859Z,33.15
2019-04-26T05:46:27.448Z,42.83
2019-04-26T05:49:21.201Z,36.73
2019-04-26T05:52:19.805Z,43.25
2019-04-26T05:55:37.966Z,38.35
2019-04-26T05:58:24.737Z,45.20
2019-04-26T06:00:58.077Z,46.25
2019-04-26T06:03:37.743Z,44.50
2019-04-26T06:06:28.706Z,47.90
2019-04-26T06:09:20.737Z,40.73
2019-04-26T06:11:56.844Z,41.00
2019-04-26T06:14:45.472Z,54.53
2019-04-26T06:17:36.947Z,53.15
2019-04-26T06:20:23.114Z,51.45
2019-04-26T06:22:55.295Z,49.40
2019-04-26T06:25:27.954Z,46.75
2019-04-26T06:28:08.791Z,47.93
2019-04-26T06:30:48.927Z,49.67
2019-04-26T06:33:32.518Z,56.63
2019-04-26T06:36:06.051Z,51.13
2019-04-26T06:39:02.007Z,51.68
2019-04-26T06:42:06.472Z,43.95
2019-04-26T06:44:51.631Z,51.20
2019-04-26T06:47:27.483Z,48.38
2019-04-26T06:50:23.142Z,48.80
2019-04-26T06:53:11.490Z,50.75
2019-04-26T06:55:50.475Z,53.55
2019-04-26T06:58:42.002Z,53.42
2019-04-26T07:01:23.632Z,54.93
2019-04-26T07:04:19.866Z,47.25
2019-04-26T07:07:13.450Z,51.65
2019-04-26T07:10:04.092Z,46.68
2019-04-26T07:13:27.168Z,47.13
2019-04-26T07:16:00.335Z,42.60
2019-04-26T07:18:35.145Z,47.35
2019-04-26T07:21:11.187Z,43.48
2019-04-26T07:24:05.567Z,42.33
2019-04-26T07:26:49.190Z,48.42
2019-04-26T07:29:42.207Z,39.55
2019-04-26T07:32:16.544Z,48.25
2019-04-26T07:35:04.700Z,40.33
2019-04-26T07:37:45.411Z,47.88
2019-04-26T07:40:30.825Z,33.73
2019-04-26T07:43:23.646Z,42.85
2019-04-26T07:46:26.970Z,43.95
2019-04-26T07:49:18.509Z,34.50
2019-04-26T07:51:56.080Z,39.08
2019-04-26T07:55:03.182Z,44.88
2019-04-26T07:58:06.937Z,38.23
2019-04-26T08:00:58.767Z,47.23
2019-04-26T08:03:37.386Z,41.40
2019-04-26T08:06:15.340Z,35.55
2019-04-26T08:08:47.180Z,38.60
2019-04-26T08:11:21.717Z,38.78
2019-04-26T08:14:02.419Z,32.03
2019-04-26T08:16:37.932Z,31.17
2019-04-26T08:19:10.664Z,35.00
2019-04-26T08:21:47.838Z,28.38
2019-04-26T08:24:23.883Z,30.05
2019-04-26T08:27:18.888Z,26.57
2019-04-26T08:29:44.182Z,24.63
2019-04-26T08:32:20.238Z,26.70
2019-04-26T08:34:52.071Z,30.85
2019-04-26T08:37:27.635Z,30.60
2019-04-26T08:39:57.598Z,21.73
2019-04-26T08:42:28.758Z,26.75
2019-04-26T08:45:04.729Z,21.10
2019-04-26T08:47:35.503Z,29.48
2019-04-26T08:50:17.625Z,26.07
2019-04-26T08:52:49.176Z,24.12
2019-04-26T08:55:20.114Z,24.25
2019-04-26T08:57:50.663Z,23.38
2019-04-26T09:00:38.823Z,24.82
2019-04-26T09:03:15.250Z,19.70
2019-04-26T09:06:03.819Z,24.30
2019-04-26T09:08:39.131Z,22.15
2019-04-26T09:11:09.172Z,22.77
2019-04-26T09:13:40.958Z,19.98
2019-04-26T09:16:12.587Z,29.32
2019-04-26T09:18:44.149Z,24.25
2019-04-26T09:21:13.410Z,21.23
2019-04-26T09:24:00.484Z,17.65
2019-04-26T09:26:42.491Z,23.20
2019-04-26T09:29:30.430Z,23.70
2019-04-26T09:32:05.774Z,20.48
2019-04-26T09:34:36.206Z,29.25
2019-04-26T09:37:04.994Z,20.02
2019-04-26T09:39:33.860Z,23.40
2019-04-26T09:42:05.998Z,26.82
2019-04-26T09:44:48.221Z,18.32
2019-04-26T09:47:27.645Z,22.62
2019-04-26T09:50:07.361Z,19.17
2019-04-26T09:52:52.952Z,22.00
2019-04-26T09:55:29.235Z,23.07
2019-04-26T09:57:53.535Z,20.23
2019-04-26T10:00:24.560Z,22.65
2019-04-26T10:02:53.330Z,23.32
2019-04-26T10:05:23.793Z,18.85
2019-04-26T10:07:52.891Z,20.40
2019-04-26T10:10:23.222Z,22.62
2019-04-26T10:12:57.140Z,21.80
2019-04-26T10:15:28.217Z,16.00
2019-04-26T10:17:57.712Z,21.25
2019-04-26T10:20:26.445Z,20.57
2019-04-26T10:22:55.322Z,18.92
2019-04-26T10:25:24.071Z,18.40
2019-04-26T10:27:52.954Z,21.97
2019-04-26T10:30:21.810Z,16.67
2019-04-26T10:32:50.599Z,20.08
2019-04-26T10:35:21.748Z,27.00
2019-04-26T10:37:52.485Z,20.10
2019-04-26T10:40:20.381Z,22.65
2019-04-26T10:42:49.191Z,19.42
2019-04-26T10:45:18.531Z,19.45
2019-04-26T10:47:47.346Z,13.70
2019-04-26T10:50:16.331Z,26.57
2019-04-26T10:52:53.822Z,19.07
2019-04-26T10:55:21.741Z,19.98
2019-04-26T10:57:52.990Z,17.05
2019-04-26T11:00:29.316Z,19.20
2019-04-26T11:03:00.014Z,18.52
2019-04-26T11:05:28.608Z,20.35
2019-04-26T11:07:57.397Z,18.15
2019-04-26T11:10:26.530Z,20.92
2019-04-26T11:12:55.518Z,20.68
2019-04-26T11:15:24.283Z,18.17
2019-04-26T11:17:53.283Z,23.42
2019-04-26T11:20:22.136Z,19.35
2019-04-26T11:22:50.900Z,24.15
2019-04-26T11:25:19.709Z,20.55
2019-04-26T11:27:48.677Z,20.43
2019-04-26T11:30:20.852Z,17.23
2019-04-26T11:32:48.762Z,21.17
2019-04-26T11:35:17.614Z,16.67
2019-04-26T11:37:46.607Z,18.85
2019-04-26T11:40:16.880Z,23.65
2019-04-26T11:42:45.973Z,24.10
2019-04-26T11:45:16.329Z,20.27
2019-04-26T11:47:55.442Z,16.57
2019-04-26T11:50:16.447Z,15.55
2019-04-26T11:52:46.241Z,16.17
2019-04-26T11:55:15.069Z,20.32
2019-04-26T11:57:47.393Z,19.98
2019-04-26T12:00:16.427Z,20.70
2019-04-26T12:02:46.246Z,17.12
2019-04-26T12:05:17.238Z,27.60
2019-04-26T12:07:47.663Z,25.05
2019-04-26T12:10:16.540Z,13.20
2019-04-26T12:12:47.174Z,16.80
2019-04-26T12:15:15.979Z,23.00
2019-04-26T12:17:57.880Z,14.87
2019-04-26T12:20:15.224Z,17.27
2019-04-26T12:22:44.521Z,17.77
2019-04-26T12:25:13.358Z,18.48
2019-04-26T12:27:42.372Z,22.30
2019-04-26T12:30:11.800Z,19.82
2019-04-26T12:32:40.700Z,17.52
2019-04-26T12:35:09.614Z,21.25
2019-04-26T12:37:40.197Z,24.05
2019-04-26T12:40:11.272Z,16.80
2019-04-26T12:42:43.359Z,16.60
2019-04-26T12:45:16.646Z,23.40
2019-04-26T12:47:53.529Z,15.43
2019-04-26T12:50:22.419Z,18.35
2019-04-26T12:52:51.399Z,18.65
2019-04-26T12:55:21.683Z,15.03
2019-04-26T12:57:50.484Z,20.70
2019-04-26T13:00:21.033Z,17.87
2019-04-26T13:02:50.206Z,15.18
2019-04-26T13:05:20.653Z,17.57
2019-04-26T13:07:54.008Z,13.98
2019-04-26T13:10:31.306Z,21.70
2019-04-26T13:13:12.130Z,18.87
2019-04-26T13:15:53.088Z,22.77
2019-04-26T13:18:21.879Z,24.70
2019-04-26T13:20:50.655Z,20.75
2019-04-26T13:23:19.451Z,20.23
2019-04-26T13:25:48.206Z,20.92
2019-04-26T13:28:20.266Z,23.22
2019-04-26T13:30:47.509Z,18.20
2019-04-26T13:33:16.271Z,20.62
2019-04-26T13:35:50.697Z,16.12
2019-04-26T13:38:15.482Z,17.27
2019-04-26T13:40:44.247Z,24.37
2019-04-26T13:43:13.150Z,17.15
2019-04-26T13:45:43.574Z,20.85
2019-04-26T13:48:25.797Z,13.35
2019-04-26T13:51:01.424Z,17.37
2019-04-26T13:53:29.444Z,17.05
2019-04-26T13:56:01.498Z,23.98
2019-04-26T13:58:28.653Z,16.15
2019-04-26T14:00:57.527Z,17.57
2019-04-26T14:03:27.071Z,25.97
2019-04-26T14:05:56.790Z,23.00
2019-04-26T14:08:25.618Z,27.45
2019-04-26T14:10:54.443Z,19.35
2019-04-26T14:13:24.955Z,39.58
2019-04-26T14:15:53.892Z,23.10
2019-04-26T14:18:22.722Z,19.50
2019-04-26T14:20:54.744Z,15.78
2019-04-26T14:23:23.679Z,23.70
2019-04-26T14:25:55.580Z,23.22
2019-04-26T14:28:25.268Z,31.35
2019-04-26T14:30:54.238Z,24.43
2019-04-26T14:33:22.983Z,21.30
2019-04-26T14:35:52.165Z,18.07
2019-04-26T14:38:27.601Z,24.40
2019-04-26T14:41:03.235Z,32.23
2019-04-26T14:43:22.467Z,20.02
2019-04-26T14:45:56.059Z,25.92
2019-04-26T14:48:35.306Z,28.40
2019-04-26T14:50:53.431Z,28.27
2019-04-26T14:53:22.372Z,22.82
2019-04-26T14:55:54.278Z,32.30
2019-04-26T14:58:23.900Z,25.30
2019-04-26T15:00:55.906Z,31.15
2019-04-26T15:03:34.941Z,27.90
2019-04-26T15:06:20.377Z,30.40
2019-04-26T15:08:48.847Z,28.60
2019-04-26T15:11:17.947Z,25.45
2019-04-26T15:13:46.836Z,27.73
2019-04-26T15:16:15.637Z,25.37
2019-04-26T15:18:44.558Z,23.47
2019-04-26T15:21:13.363Z,26.17
2019-04-26T15:23:42.183Z,21.25
2019-04-26T15:26:12.840Z,22.17
2019-04-26T15:28:43.727Z,19.77
2019-04-26T15:31:13.099Z,26.73
2019-04-26T15:33:43.684Z,28.92
2019-04-26T15:36:14.454Z,26.27
2019-04-26T15:38:44.987Z,24.12
2019-04-26T15:41:27.458Z,27.17
2019-04-26T15:43:57.943Z,24.23
2019-04-26T15:46:48.549Z,24.72
2019-04-26T15:49:29.436Z,21.57
2019-04-26T15:51:59.753Z,22.05
2019-04-26T15:54:28.326Z,30.05
2019-04-26T15:56:57.139Z,24.63
2019-04-26T15:59:25.990Z,15.70
2019-04-26T16:01:56.425Z,21.52
2019-04-26T16:04:25.353Z,18.67
2019-04-26T16:06:54.218Z,10.93
2019-04-26T16:09:23.103Z,13.50
2019-04-26T16:11:53.186Z,17.07
2019-04-26T16:14:26.363Z,12.85
2019-04-26T16:16:52.719Z,14.83
2019-04-26T16:19:21.638Z,17.45
2019-04-26T16:21:52.719Z,19.92
2019-04-26T16:24:24.127Z,14.70
2019-04-26T16:26:55.676Z,12.35
2019-04-26T16:29:35.861Z,16.12
2019-04-26T16:32:08.733Z,18.07
2019-04-26T16:34:41.733Z,17.30
2019-04-26T16:37:09.998Z,14.50
2019-04-26T16:39:40.142Z,14.47
2019-04-26T16:42:09.122Z,23.25
2019-04-26T16:44:37.972Z,16.25
2019-04-26T16:47:06.765Z,16.93
2019-04-26T16:49:42.064Z,24.77
2019-04-26T16:52:07.260Z,25.15
2019-04-26T16:54:36.300Z,18.60
2019-04-26T16:57:10.958Z,20.48
2019-04-26T16:59:35.637Z,20.50
2019-04-26T17:02:04.823Z,19.37
2019-04-26T17:04:36.233Z,24.75
2019-04-26T17:07:05.022Z,25.50
2019-04-26T17:09:54.412Z,22.00
2019-04-26T17:12:04.720Z,18.42
2019-04-26T17:14:34.164Z,22.67
2019-04-26T17:17:03.300Z,33.83
2019-04-26T17:19:34.246Z,27.25
2019-04-26T17:22:14.021Z,29.02
2019-04-26T17:25:02.430Z,26.45
2019-04-26T17:27:32.909Z,18.70
2019-04-26T17:30:03.094Z,30.25
2019-04-26T17:32:34.930Z,21.85
2019-04-26T17:35:06.029Z,23.85
2019-04-26T17:37:32.927Z,20.40
2019-04-26T17:40:01.744Z,15.58
2019-04-26T17:42:36.429Z,21.07
2019-04-26T17:45:03.997Z,20.68
2019-04-26T17:47:34.666Z,23.92
2019-04-26T17:50:05.220Z,26.82
2019-04-26T17:52:36.018Z,19.48
2019-04-26T17:55:02.902Z,24.02
2019-04-26T17:57:36.465Z,27.70
2019-04-26T18:00:07.918Z,22.20
2019-04-26T18:02:42.238Z,24.82
2019-04-26T18:05:03.716Z,21.30
2019-04-26T18:07:41.391Z,32.05
2019-04-26T18:10:05.154Z,23.50
2019-04-26T18:12:39.476Z,26.87
2019-04-26T18:15:09.563Z,23.18
2019-04-26T18:17:40.230Z,21.73
2019-04-26T18:20:19.810Z,30.30
2019-04-26T18:23:05.574Z,18.57
2019-04-26T18:25:35.692Z,17.25
2019-04-26T18:28:04.731Z,24.65
2019-04-26T18:30:33.738Z,24.47
2019-04-26T18:33:02.912Z,19.80
2019-04-26T18:35:31.800Z,24.92
2019-04-26T18:38:00.643Z,17.75
2019-04-26T18:40:29.428Z,24.80
2019-04-26T18:42:58.234Z,25.97
2019-04-26T18:45:29.857Z,23.05
2019-04-26T18:48:01.223Z,20.02
2019-04-26T18:50:28.500Z,22.85
2019-04-26T18:53:03.229Z,21.10
2019-04-26T18:55:34.327Z,24.75
2019-04-26T18:58:05.245Z,26.37
2019-04-26T19:00:38.215Z,19.52
2019-04-26T19:03:07.304Z,22.30
2019-04-26T19:05:36.195Z,22.80
2019-04-26T19:08:07.362Z,24.90
2019-04-26T19:10:35.867Z,16.67
2019-04-26T19:13:07.422Z,25.23
2019-04-26T19:15:53.079Z,17.95
2019-04-26T19:18:34.002Z,23.77
2019-04-26T19:21:14.003Z,24.12
2019-04-26T19:23:42.824Z,18.50
2019-04-26T19:26:13.694Z,19.15
2019-04-26T19:28:44.407Z,21.15
2019-04-26T19:31:12.862Z,20.35
2019-04-26T19:33:42.782Z,20.57
2019-04-26T19:36:13.603Z,18.40
2019-04-26T19:38:45.196Z,16.48
2019-04-26T19:41:12.777Z,21.17
2019-04-26T19:43:44.916Z,21.82
2019-04-26T19:46:17.002Z,23.18
2019-04-26T19:49:00.012Z,23.90
2019-04-26T19:51:46.221Z,21.55
2019-04-26T19:54:27.783Z,19.87
2019-04-26T19:57:01.031Z,21.17
2019-04-26T19:59:30.824Z,17.67
2019-04-26T20:01:58.119Z,20.62
2019-04-26T20:04:30.767Z,22.55
2019-04-26T20:06:57.381Z,23.10
2019-04-26T20:09:26.600Z,17.65
2019-04-26T20:11:57.989Z,21.77
2019-04-26T20:14:39.814Z,30.15
2019-04-26T20:16:56.363Z,23.87
2019-04-26T20:19:34.046Z,27.07
2019-04-26T20:21:55.653Z,31.50
2019-04-26T20:24:24.415Z,31.95
2019-04-26T20:26:53.220Z,27.48
2019-04-26T20:29:23.213Z,26.75
2019-04-26T20:31:53.749Z,36.28
2019-04-26T20:34:22.517Z,24.65
2019-04-26T20:36:52.174Z,34.92
2019-04-26T20:39:23.971Z,26.55
2019-04-26T20:42:01.006Z,31.50
2019-04-26T20:44:28.399Z,29.02
2019-04-26T20:46:53.893Z,25.77
2019-04-26T20:49:22.705Z,29.42
2019-04-26T20:51:51.902Z,32.03
2019-04-26T20:54:22.459Z,35.23
2019-04-26T20:56:55.339Z,24.63
2019-04-26T20:59:23.534Z,27.98
2019-04-26T21:02:03.378Z,32.20
2019-04-26T21:04:34.909Z,32.65
2019-04-26T21:06:53.580Z,22.87
2019-04-26T21:09:22.860Z,26.57
2019-04-26T21:11:51.786Z,31.17
2019-04-26T21:14:21.403Z,34.63
2019-04-26T21:16:50.588Z,26.55
2019-04-26T21:19:20.273Z,25.02
2019-04-26T21:21:50.434Z,21.87
2019-04-26T21:24:23.440Z,27.73
2019-04-26T21:27:02.494Z,23.92
2019-04-26T21:29:52.508Z,22.93
2019-04-26T21:32:39.255Z,27.67
2019-04-26T21:35:09.514Z,22.30
2019-04-26T21:37:39.985Z,23.67
2019-04-26T21:40:25.178Z,19.50
2019-04-26T21:42:55.338Z,25.50
2019-04-26T21:45:21.577Z,23.35
2019-04-26T21:47:50.598Z,26.35
2019-04-26T21:50:19.423Z,21.48
2019-04-26T21:52:48.221Z,25.27
2019-04-26T21:55:17.039Z,22.20
2019-04-26T21:57:45.872Z,21.48
2019-04-26T22:00:20.600Z,20.70
2019-04-26T22:02:49.422Z,25.23
2019-04-26T22:05:18.375Z,24.27
2019-04-26T22:07:47.824Z,20.27
2019-04-26T22:10:20.893Z,21.82
2019-04-26T22:12:49.738Z,24.72
2019-04-26T22:15:37.563Z,20.52
2019-04-26T22:18:10.303Z,27.55
2019-04-26T22:20:40.378Z,23.38
2019-04-26T22:23:11.659Z,20.45
2019-04-26T22:25:43.090Z,23.15
2019-04-26T22:28:13.062Z,18.25
2019-04-26T22:30:42.054Z,17.95
2019-04-26T22:33:10.821Z,18.98
2019-04-26T22:35:39.632Z,22.02
2019-04-26T22:38:08.404Z,21.95
2019-04-26T22:40:37.229Z,25.70
2019-04-26T22:43:10.909Z,20.75
2019-04-26T22:45:44.180Z,23.73
2019-04-26T22:48:23.146Z,22.27
2019-04-26T22:50:53.698Z,25.00
2019-04-26T22:53:21.598Z,25.60
2019-04-26T22:55:48.645Z,22.90
2019-04-26T22:58:20.680Z,22.90
2019-04-26T23:00:48.502Z,23.77
2019-04-26T23:03:17.386Z,22.65
2019-04-26T23:05:46.243Z,28.40
2019-04-26T23:08:15.136Z,24.40
2019-04-26T23:10:45.834Z,25.23
2019-04-26T23:13:16.217Z,25.48
2019-04-26T23:15:52.415Z,25.65
2019-04-26T23:18:43.778Z,24.50
2019-04-26T23:21:12.029Z,27.25
2019-04-26T23:23:42.760Z,22.35
2019-04-26T23:26:12.684Z,25.05
2019-04-26T23:28:43.301Z,23.83
2019-04-26T23:31:13.426Z,25.25
2019-04-26T23:33:42.937Z,23.07
2019-04-26T23:36:13.477Z,29.52
2019-04-26T23:38:43.505Z,26.45
2019-04-26T23:41:14.231Z,24.95
2019-04-26T23:43:43.164Z,23.90
2019-04-26T23:46:14.301Z,20.35
2019-04-26T23:48:48.498Z,24.02
2019-04-26T23:51:12.967Z,22.02
2019-04-26T23:53:42.854Z,22.27
2019-04-26T23:56:16.153Z,17.90
2019-04-26T23:58:44.144Z,25.75
